Time;durP1;ratioP1;P1;durP2;ratioP2;P2;SDS_P1;SDS_P2;PMS_P1;PMS_P2;Temp;Humidity;BMP_temperature;BMP_pressure;BME280_temperature;BME280_humidity;BME280_pressure;Samples;Min_cycle;Max_cycle;Signal;HPM_P1;HPM_P2
2021/12/07 00:01:17;;;;;;;20.60;13.10;;;;;;;3.26;67.25;98595.73;213109;1323;139247;-60
2021/12/07 00:06:22;;;;;;;21.10;13.60;;;;;;;3.22;67.36;98598.91;212279;1324;138964;-58
2021/12/07 00:11:28;;;;;;;20.10;12.30;;;;;;;3.17;67.21;98594.50;212537;1323;139154;-61
2021/12/07 00:16:31;;;;;;;22.40;13.50;;;;;;;3.14;67.34;98579.75;212681;1322;139380;-60
2021/12/07 00:21:35;;;;;;;22.10;12.90;;;;;;;3.15;67.23;98572.52;212262;1329;140150;-59
2021/12/07 00:26:41;;;;;;;21.80;13.80;;;;;;;3.19;67.11;98575.51;212317;1329;141298;-57
2021/12/07 00:31:57;;;;;;;;;;;;;;;3.22;67.42;98579.41;212405;1326;139343;-59
2021/12/07 00:37:01;;;;;;;21.50;14.30;;;;;;;3.23;67.31;98581.66;212329;1322;125671;-65
2021/12/07 00:42:04;;;;;;;22.70;13.80;;;;;;;3.23;67.19;98581.16;212182;1329;139472;-62
2021/12/07 00:47:07;;;;;;;22.50;13.50;;;;;;;3.20;67.18;98574.05;212698;1327;138901;-57
2021/12/07 00:52:12;;;;;;;21.70;14.00;;;;;;;3.17;66.90;98578.41;212439;1326;138776;-58
2021/12/07 00:57:15;;;;;;;20.80;14.00;;;;;;;3.15;67.36;98575.00;212432;1329;139819;-59
2021/12/07 01:02:18;;;;;;;22.50;14.90;;;;;;;3.11;67.15;98575.13;212318;1328;138848;-64
2021/12/07 01:28:52;;;;;;;23.20;14.70;;;;;;;3.02;67.41;98575.30;212787;1326;139854;-63
2021/12/07 02:00:11;;;;;;;28.30;16.10;;;;;;;3.12;67.45;98546.52;212676;1323;140021;-62
2021/12/07 02:05:14;;;;;;;27.50;16.60;;;;;;;3.10;67.24;98544.70;213107;1326;140381;-59
2021/12/07 02:10:23;;;;;;;27.60;16.30;;;;;;;3.05;67.36;98552.56;212651;1324;140092;-56
2021/12/07 02:15:29;;;;;;;27.80;16.60;;;;;;;3.02;67.32;98552.02;212184;1325;139634;-59
2021/12/07 02:20:32;;;;;;;31.20;17.70;;;;;;;3.00;67.45;98548.23;212350;1329;140806;-59
2021/12/07 02:25:35;;;;;;;29.90;17.40;;;;;;;2.99;67.44;98554.39;212376;1326;139008;-59
2021/12/07 02:30:40;;;;;;;32.30;18.90;;;;;;;2.99;67.74;98555.28;212602;1327;141813;-58
2021/12/07 02:35:43;;;;;;;34.80;18.30;;;;;;;3.02;67.61;98553.38;212268;1329;139753;-59
2021/12/07 02:40:48;;;;;;;30.80;19.00;;;;;;;3.08;67.61;98551.39;212896;1329;139961;-60
2021/12/07 02:45:51;;;;;;;29.60;17.20;;;;;;;3.11;67.56;98553.73;212903;1323;138963;-60
2021/12/07 02:50:55;;;;;;;33.30;19.10;;;;;;;3.12;67.53;98554.75;212091;1329;139019;-64
2021/12/07 02:56:01;;;;;;;33.40;19.50;;;;;;;3.13;67.38;98549.84;212017;1330;139529;-61
2021/12/07 03:01:16;;;;;;;30.60;18.60;;;;;;;3.13;67.50;98550.18;212230;1330;139758;-59
2021/12/07 03:06:35;;;;;;;34.70;18.90;;;;;;;3.12;67.28;98545.12;212542;1329;139269;-64
2021/12/07 03:27:48;;;;;;;29.70;17.50;;;;;;;2.98;67.45;98563.73;212130;1332;139060;-59
2021/12/07 03:32:52;;;;;;;27.80;16.50;;;;;;;2.96;67.37;98572.75;212150;1329;139457;-60
2021/12/07 03:37:56;;;;;;;29.10;16.90;;;;;;;2.94;67.43;98576.15;211896;1331;139237;-56
2021/12/07 03:43:01;;;;;;;27.00;16.10;;;;;;;2.94;67.53;98579.80;212415;1323;139669;-57
2021/12/07 03:48:06;;;;;;;30.30;16.90;;;;;;;3.00;67.49;98574.35;212291;1325;139239;-58
2021/12/07 03:53:11;;;;;;;27.10;16.00;;;;;;;3.04;67.54;98573.63;212534;1327;139208;-61
2021/12/07 03:58:14;;;;;;;28.10;15.80;;;;;;;3.11;67.61;98579.51;212664;1329;139291;-60
2021/12/07 04:03:19;;;;;;;29.70;17.50;;;;;;;3.12;67.50;98580.54;212763;1326;138986;-59
2021/12/07 04:08:26;;;;;;;28.50;15.80;;;;;;;3.12;67.37;98586.50;212124;1328;138917;-59
2021/12/07 04:13:30;;;;;;;30.90;17.00;;;;;;;3.09;67.25;98588.15;212174;1324;142968;-58
2021/12/07 04:18:35;;;;;;;27.90;16.40;;;;;;;3.06;67.28;98599.85;213078;1322;139171;-58
2021/12/07 04:23:38;;;;;;;30.40;17.20;;;;;;;3.02;67.23;98601.41;212655;1325;140045;-59
2021/12/07 04:28:43;;;;;;;32.70;17.70;;;;;;;2.98;67.24;98601.23;212467;1329;139316;-59
2021/12/07 04:33:46;;;;;;;33.10;18.50;;;;;;;2.93;67.35;98600.89;212194;1329;139976;-59
2021/12/07 04:38:49;;;;;;;154.30;87.60;;;;;;;3.02;68.19;98598.62;212026;1329;139623;-62
2021/12/07 04:43:52;;;;;;;39.70;19.80;;;;;;;3.26;68.15;98597.34;212815;1321;139424;-60
2021/12/07 04:59:33;;;;;;;39.00;20.00;;;;;;;3.19;67.35;98598.31;212680;1329;141584;-60
2021/12/07 05:04:37;;;;;;;38.80;20.70;;;;;;;3.13;67.46;98596.60;213015;1323;138773;-59
2021/12/07 05:10:09;;;;;;;41.90;22.50;;;;;;;3.08;67.42;98600.81;212175;1326;139196;-58
2021/12/07 05:15:17;;;;;;;63.90;35.00;;;;;;;3.05;67.70;98606.73;212509;1328;140810;-59
2021/12/07 05:42:01;;;;;;;37.30;18.00;;;;;;;2.80;67.28;98607.31;212814;1322;139634;-64
2021/12/07 05:47:05;;;;;;;38.50;19.40;;;;;;;2.76;67.42;98598.20;212748;1322;140664;-63
2021/12/07 05:52:08;;;;;;;41.70;18.90;;;;;;;2.77;67.52;98601.11;212713;1322;139266;-59
2021/12/07 05:57:11;;;;;;;40.30;21.30;;;;;;;2.81;67.40;98594.17;212395;1324;140266;-60
2021/12/07 06:02:14;;;;;;;39.30;20.00;;;;;;;2.84;67.60;98600.69;212928;1326;139259;-61
2021/12/07 06:07:18;;;;;;;37.60;19.30;;;;;;;2.89;67.59;98606.50;213201;1324;139084;-63
2021/12/07 06:12:21;;;;;;;40.50;20.50;;;;;;;2.89;67.52;98608.58;212287;1326;140609;-71
2021/12/07 06:17:24;;;;;;;42.50;21.10;;;;;;;2.87;67.54;98616.19;212321;1322;138965;-62
2021/12/07 06:22:27;;;;;;;38.60;19.60;;;;;;;2.87;67.50;98614.61;213108;1326;138868;-60
2021/12/07 06:27:30;;;;;;;38.10;20.00;;;;;;;2.85;67.63;98613.64;212688;1322;138939;-62
2021/12/07 06:32:34;;;;;;;36.80;19.10;;;;;;;2.81;67.49;98612.53;212430;1322;139261;-62
2021/12/07 06:37:37;;;;;;;36.40;19.30;;;;;;;2.79;67.54;98612.27;212426;1322;139980;-60
2021/12/07 06:42:41;;;;;;;34.90;19.70;;;;;;;2.77;67.52;98616.72;212293;1326;139123;-63
2021/12/07 06:47:44;;;;;;;38.40;20.50;;;;;;;2.75;67.46;98626.27;212966;1326;140545;-59
2021/12/07 06:52:47;;;;;;;40.20;20.70;;;;;;;2.72;67.46;98632.32;212547;1326;139335;-60
2021/12/07 06:57:50;;;;;;;40.70;21.10;;;;;;;2.73;67.58;98638.23;212578;1322;139974;-64
2021/12/07 07:02:53;;;;;;;44.10;22.40;;;;;;;2.77;67.70;98642.80;212171;1328;140546;-67
2021/12/07 07:07:57;;;;;;;43.60;23.00;;;;;;;2.81;67.64;98649.15;212522;1326;139992;-65
2021/12/07 07:13:01;;;;;;;50.60;24.30;;;;;;;2.84;67.66;98650.09;211800;1329;138922;-63
2021/12/07 07:18:04;;;;;;;41.00;22.70;;;;;;;2.83;67.44;98655.92;212757;1322;139155;-62
2021/12/07 07:23:07;;;;;;;47.80;23.50;;;;;;;2.82;67.60;98652.81;213067;1322;140752;-64
2021/12/07 07:28:10;;;;;;;41.80;22.30;;;;;;;2.81;67.43;98662.12;212825;1321;139085;-60
2021/12/07 07:33:13;;;;;;;43.40;22.30;;;;;;;2.78;67.44;98669.25;212022;1323;139633;-62
2021/12/07 07:38:16;;;;;;;44.10;23.00;;;;;;;2.73;67.26;98671.36;212334;1329;139211;-65
2021/12/07 07:43:20;;;;;;;37.40;21.40;;;;;;;2.69;67.45;98667.29;212602;1323;139636;-60
2021/12/07 07:48:35;;;;;;;38.00;21.10;;;;;;;2.64;67.39;98674.30;213282;1322;140077;-60
2021/12/07 07:53:39;;;;;;;37.70;21.80;;;;;;;2.59;67.43;98674.10;212186;1323;139455;-60
2021/12/07 07:58:43;;;;;;;44.40;23.70;;;;;;;2.57;67.45;98672.64;212672;1322;138851;-61
2021/12/07 08:03:46;;;;;;;40.70;22.10;;;;;;;2.59;67.46;98672.72;212402;1327;139919;-61
2021/12/07 08:08:49;;;;;;;40.10;23.30;;;;;;;2.65;67.43;98678.11;212238;1326;140909;-62
2021/12/07 08:13:54;;;;;;;45.00;24.10;;;;;;;2.72;67.52;98670.70;212459;1326;139171;-59
2021/12/07 08:19:01;;;;;;;50.40;24.90;;;;;;;2.75;67.53;98674.77;213076;1323;139549;-62
2021/12/07 08:24:06;;;;;;;45.20;24.30;;;;;;;2.75;67.37;98670.40;212833;1322;139709;-60
2021/12/07 08:29:09;;;;;;;45.80;24.30;;;;;;;2.75;67.48;98670.39;212389;1326;139102;-59
2021/12/07 08:34:12;;;;;;;43.60;23.60;;;;;;;2.77;67.44;98673.84;212580;1323;139920;-66
2021/12/07 08:39:16;;;;;;;47.00;25.30;;;;;;;2.77;67.28;98673.11;213077;1322;139442;-60
2021/12/07 08:44:20;;;;;;;41.50;24.20;;;;;;;2.76;67.32;98677.20;212474;1322;138724;-61
2021/12/07 08:49:23;;;;;;;45.60;24.30;;;;;;;2.75;67.39;98680.39;212461;1322;160278;-60
2021/12/07 08:59:46;;;;;;;54.20;26.30;;;;;;;2.72;67.38;98683.30;213002;1323;139010;-59
2021/12/07 09:04:51;;;;;;;50.20;27.10;;;;;;;2.71;67.31;98680.54;213231;1326;139585;-60
2021/12/07 09:09:54;;;;;;;49.00;27.30;;;;;;;2.75;67.45;98675.84;212904;1322;140060;-61
2021/12/07 09:14:57;;;;;;;50.80;27.60;;;;;;;2.80;67.56;98669.32;212110;1325;139144;-60
2021/12/07 09:20:00;;;;;;;51.80;28.30;;;;;;;2.87;67.61;98666.65;212487;1329;139735;-63
2021/12/07 09:25:04;;;;;;;50.80;27.30;;;;;;;2.93;67.49;98667.67;212614;1322;139876;-62
2021/12/07 09:30:12;;;;;;;48.70;28.10;;;;;;;2.93;67.35;98670.95;212331;1323;139616;-61
2021/12/07 09:35:16;;;;;;;585.20;385.40;;;;;;;2.92;67.24;98671.36;211967;1328;139100;-58
2021/12/07 09:40:28;;;;;;;78.50;39.30;;;;;;;3.00;67.85;98677.04;212814;1321;140401;-62
2021/12/07 09:45:31;;;;;;;54.40;28.90;;;;;;;3.04;67.53;98679.14;212317;1323;139909;-62
2021/12/07 09:50:38;;;;;;;55.10;29.50;;;;;;;3.00;67.39;98675.27;212589;1322;139841;-60
2021/12/07 09:55:44;;;;;;;50.20;27.80;;;;;;;2.96;67.27;98674.21;212340;1322;139013;-67
2021/12/07 10:00:48;;;;;;;;;;;;;;;2.93;67.25;98673.45;212042;1329;139423;-63
2021/12/07 10:05:52;;;;;;;48.50;26.30;;;;;;;2.87;67.45;98676.44;212521;1322;124969;-62
2021/12/07 10:10:58;;;;;;;51.10;27.10;;;;;;;2.83;67.23;98676.05;212358;1329;139291;-58
2021/12/07 10:16:03;;;;;;;;;;;;;;;2.81;67.39;98681.36;212772;1326;139604;-60
2021/12/07 10:21:30;;;;;;;56.80;29.80;;;;;;;2.92;68.01;98682.75;212571;1322;131112;-58
2021/12/07 10:26:39;;;;;;;54.50;28.60;;;;;;;3.04;67.70;98680.19;212626;1322;140965;-59
2021/12/07 10:31:48;;;;;;;51.80;28.00;;;;;;;3.06;67.29;98681.52;212285;1325;139513;-60
2021/12/07 10:37:04;;;;;;;53.20;27.00;;;;;;;3.09;67.37;98681.44;212049;1323;139625;-58
2021/12/07 10:42:12;;;;;;;50.60;25.70;;;;;;;3.10;67.22;98682.96;212596;1322;140950;-57
2021/12/07 10:47:34;;;;;;;;;;;;;;;3.06;67.05;98679.24;211207;1329;141156;-58
2021/12/07 10:52:40;;;;;;;49.60;24.90;;;;;;;2.99;67.04;98687.91;210183;1325;127978;-61
2021/12/07 10:57:47;;;;;;;48.60;25.20;;;;;;;2.94;67.16;98685.27;212262;1322;139876;-59
2021/12/07 11:03:03;;;;;;;48.10;25.10;;;;;;;2.94;66.92;98686.17;207393;1364;654499;-62
2021/12/07 11:08:09;;;;;;;46.40;24.70;;;;;;;2.93;66.99;98681.48;210474;1333;139886;-57
2021/12/07 11:13:20;;;;;;;44.30;23.00;;;;;;;2.94;66.97;98679.89;210985;1333;163191;-58
2021/12/07 11:18:35;;;;;;;44.70;23.90;;;;;;;2.90;66.83;98684.56;211331;1332;138505;-58
2021/12/07 11:23:45;;;;;;;47.20;24.10;;;;;;;2.87;67.05;98691.54;211021;1338;138523;-58
2021/12/07 11:34:20;;;;;;;51.10;23.90;;;;;;;2.86;67.11;98693.83;211432;1335;139273;-59
2021/12/07 11:39:31;;;;;;;662.40;402.30;;;;;;;2.91;67.12;98693.64;210924;1332;141402;-57
2021/12/07 11:44:38;;;;;;;66.10;30.10;;;;;;;3.09;67.68;98692.25;212892;1323;139002;-57
2021/12/07 11:49:41;;;;;;;57.70;27.80;;;;;;;3.20;67.18;98680.98;213498;1322;138405;-55
2021/12/07 11:54:45;;;;;;;57.50;27.80;;;;;;;3.20;67.02;98675.39;212466;1328;139310;-57
2021/12/07 11:59:49;;;;;;;52.70;25.90;;;;;;;3.18;66.88;98679.12;212871;1325;138586;-59
2021/12/07 12:04:52;;;;;;;54.50;27.10;;;;;;;3.17;66.84;98683.37;213221;1322;138124;-58
2021/12/07 12:09:56;;;;;;;51.20;26.10;;;;;;;3.16;66.82;98682.73;212977;1319;138410;-60
2021/12/07 12:15:11;;;;;;;53.90;26.70;;;;;;;3.11;66.71;98685.36;212819;1322;138216;-60
2021/12/07 12:20:18;;;;;;;51.20;25.20;;;;;;;3.06;66.64;98688.70;213285;1319;138999;-59
2021/12/07 12:25:25;;;;;;;48.70;25.20;;;;;;;3.02;66.62;98690.79;213121;1323;138656;-57
2021/12/07 12:30:40;;;;;;;46.90;24.30;;;;;;;2.96;66.64;98694.70;212726;1326;139145;-59
2021/12/07 12:35:52;;;;;;;50.20;24.70;;;;;;;2.91;66.68;98691.70;212876;1325;138419;-56
2021/12/07 12:41:08;;;;;;;49.50;24.50;;;;;;;2.90;66.86;98685.63;213023;1325;138131;-59
2021/12/07 12:46:16;;;;;;;48.20;23.90;;;;;;;2.91;66.84;98685.41;212964;1320;138506;-58
2021/12/07 12:51:22;;;;;;;51.90;25.90;;;;;;;2.90;66.73;98687.91;212808;1326;138232;-59
2021/12/07 12:56:30;;;;;;;46.70;24.30;;;;;;;2.91;66.54;98696.78;212953;1319;139029;-59
2021/12/07 13:01:37;;;;;;;51.10;26.20;;;;;;;2.93;66.70;98699.89;212597;1324;138925;-59
2021/12/07 13:06:46;;;;;;;57.90;29.40;;;;;;;2.97;66.74;98701.85;212957;1322;137964;-58
2021/12/07 13:12:07;;;;;;;56.50;27.60;;;;;;;2.98;66.67;98706.16;212970;1318;138401;-60
2021/12/07 13:17:23;;;;;;;59.70;28.70;;;;;;;2.98;66.74;98711.77;213353;1323;138780;-60
2021/12/07 13:22:38;;;;;;;61.10;27.30;;;;;;;2.95;66.71;98722.42;212380;1327;138693;-60
2021/12/07 13:28:01;;;;;;;216.20;108.30;;;;;;;2.92;66.88;98728.83;212744;1322;138196;-56
2021/12/07 13:33:11;;;;;;;64.30;30.50;;;;;;;3.02;67.29;98732.14;212934;1325;139213;-60
2021/12/07 13:38:17;;;;;;;65.60;29.00;;;;;;;2.98;66.99;98734.21;213095;1319;139189;-58
2021/12/07 13:43:37;;;;;;;147.20;82.60;;;;;;;2.94;66.91;98736.82;212659;1318;138513;-57
2021/12/07 13:48:42;;;;;;;73.60;32.00;;;;;;;2.98;67.31;98743.14;212833;1324;138859;-64
2021/12/07 13:53:47;;;;;;;75.80;31.30;;;;;;;2.96;66.88;98750.59;212725;1324;139696;-60
2021/12/07 13:59:01;;;;;;;79.80;37.20;;;;;;;3.96;72.56;98741.73;213524;1320;139912;-62
2021/12/07 14:04:07;;;;;;;68.40;29.50;;;;;;;4.42;68.39;98738.21;212927;1319;138255;-59
2021/12/07 14:09:11;;;;;;;61.20;27.70;;;;;;;4.01;66.92;98745.52;213510;1323;139288;-60
2021/12/07 14:14:16;;;;;;;60.70;26.80;;;;;;;3.73;66.54;98753.64;212614;1325;207998;-59
2021/12/07 14:19:19;;;;;;;58.20;26.10;;;;;;;3.45;66.38;98756.32;212388;1325;138942;-64
2021/12/07 14:24:22;;;;;;;54.70;24.50;;;;;;;3.24;66.40;98762.73;212492;1322;138477;-59
2021/12/07 14:29:26;;;;;;;72.10;37.90;;;;;;;3.08;66.34;98772.23;213449;1320;140121;-59
2021/12/07 14:34:32;;;;;;;53.10;26.50;;;;;;;3.05;67.08;98777.07;212283;1329;138468;-61
2021/12/07 14:39:41;;;;;;;43.50;22.40;;;;;;;2.98;66.52;98780.46;212641;1322;139339;-63
2021/12/07 14:44:51;;;;;;;42.30;22.30;;;;;;;2.88;66.45;98789.77;212861;1320;140093;-61
2021/12/07 14:49:58;;;;;;;42.10;20.90;;;;;;;2.77;66.25;98790.66;212653;1321;139284;-63
2021/12/07 14:55:03;;;;;;;44.40;21.50;;;;;;;2.69;66.41;98790.24;212521;1325;139014;-60
2021/12/07 15:00:08;;;;;;;40.80;22.10;;;;;;;2.63;66.32;98787.81;212949;1326;139779;-60
2021/12/07 15:05:11;;;;;;;48.70;23.80;;;;;;;2.57;66.56;98787.48;212954;1322;138643;-59
2021/12/07 15:10:17;;;;;;;47.80;24.00;;;;;;;2.57;66.49;98801.51;212652;1319;139117;-62
2021/12/07 15:15:21;;;;;;;54.70;25.60;;;;;;;2.59;66.55;98806.15;212562;1322;138240;-61
2021/12/07 15:20:24;;;;;;;53.90;26.20;;;;;;;2.63;66.64;98807.96;212796;1323;138229;-62
2021/12/07 15:25:28;;;;;;;55.30;25.50;;;;;;;2.65;66.58;98808.60;212664;1319;139146;-60
2021/12/07 15:30:33;;;;;;;50.80;26.60;;;;;;;2.66;66.53;98813.46;212560;1319;139178;-62
2021/12/07 15:35:36;;;;;;;54.00;26.10;;;;;;;2.65;66.53;98810.89;212587;1323;138214;-65
2021/12/07 15:40:41;;;;;;;54.50;26.90;;;;;;;2.58;66.43;98812.67;213011;1323;138647;-62
2021/12/07 15:45:45;;;;;;;59.90;26.50;;;;;;;2.55;66.39;98813.48;213082;1319;138839;-62
2021/12/07 15:50:49;;;;;;;162.70;105.50;;;;;;;2.52;66.67;98818.47;212619;1325;138542;-60
2021/12/07 15:55:52;;;;;;;60.50;30.40;;;;;;;2.61;67.10;98818.53;212633;1326;138555;-60
2021/12/07 16:00:58;;;;;;;56.30;28.50;;;;;;;2.65;66.86;98816.13;212483;1324;138655;-60
2021/12/07 16:06:05;;;;;;;51.00;25.50;;;;;;;2.61;66.75;98819.05;212895;1319;138941;-61
2021/12/07 16:11:12;;;;;;;59.30;27.40;;;;;;;2.55;66.59;98826.42;212937;1323;138601;-61
2021/12/07 16:16:21;;;;;;;51.80;25.40;;;;;;;2.51;66.52;98833.92;212661;1324;138762;-63
2021/12/07 16:21:27;;;;;;;56.70;27.10;;;;;;;2.50;66.48;98834.84;212366;1327;138945;-60
2021/12/07 16:26:31;;;;;;;86.40;41.40;;;;;;;2.58;67.10;98839.31;212666;1325;138597;-61
2021/12/07 16:31:37;;;;;;;55.40;28.00;;;;;;;2.70;66.80;98836.44;213101;1320;140936;-59
2021/12/07 16:36:40;;;;;;;54.30;26.50;;;;;;;2.67;66.53;98844.78;212203;1323;138416;-58
2021/12/07 16:41:43;;;;;;;50.10;27.60;;;;;;;2.58;66.45;98842.28;212196;1329;139402;-59
2021/12/07 16:46:47;;;;;;;54.90;27.50;;;;;;;2.55;66.40;98841.67;211572;1319;138618;-59
2021/12/07 16:51:51;;;;;;;54.50;27.20;;;;;;;2.50;66.43;98841.30;212501;1321;139419;-59
2021/12/07 16:57:01;;;;;;;48.50;25.00;;;;;;;2.45;66.42;98835.86;212256;1328;140863;-59
2021/12/07 17:02:05;;;;;;;85.60;49.70;;;;;;;2.49;67.23;98833.99;213308;1320;139141;-59
2021/12/07 17:07:08;;;;;;;53.00;26.60;;;;;;;2.89;68.00;98831.61;212815;1320;140257;-59
2021/12/07 17:12:11;;;;;;;46.90;24.70;;;;;;;2.85;66.57;98827.72;212570;1321;139122;-60
2021/12/07 17:17:15;;;;;;;45.50;26.00;;;;;;;2.74;66.08;98824.56;212832;1325;140572;-59
2021/12/07 17:22:18;;;;;;;50.00;25.30;;;;;;;2.62;65.91;98828.13;212732;1326;138576;-60
2021/12/07 17:27:21;;;;;;;48.20;26.40;;;;;;;2.50;66.02;98832.38;212388;1326;139286;-62
2021/12/07 17:32:25;;;;;;;51.60;27.20;;;;;;;2.42;66.11;98830.88;212895;1324;138071;-64
2021/12/07 17:37:28;;;;;;;52.60;28.20;;;;;;;2.37;66.11;98830.52;212837;1320;139633;-59
2021/12/07 17:42:32;;;;;;;52.70;27.60;;;;;;;2.34;66.14;98827.98;212316;1327;138260;-61
2021/12/07 17:47:35;;;;;;;47.00;25.20;;;;;;;2.32;66.07;98830.16;212938;1324;139267;-62
2021/12/07 17:52:40;;;;;;;49.90;26.60;;;;;;;2.26;66.10;98832.27;212468;1329;138937;-58
2021/12/07 17:57:45;;;;;;;54.60;26.30;;;;;;;2.22;66.01;98834.86;212855;1326;138816;-61
2021/12/07 18:02:49;;;;;;;130.60;58.00;;;;;;;2.18;66.32;98832.35;212858;1323;138630;-59
2021/12/07 18:07:52;;;;;;;54.30;26.90;;;;;;;2.27;66.40;98827.34;213179;1322;138450;-62
2021/12/07 18:12:59;;;;;;;46.80;25.90;;;;;;;2.24;66.12;98823.42;212801;1326;139217;-61
2021/12/07 18:18:04;;;;;;;51.90;26.00;;;;;;;2.20;66.15;98825.48;212936;1322;140251;-60
2021/12/07 18:23:09;;;;;;;50.50;25.20;;;;;;;2.12;66.18;98827.29;214045;1319;138354;-58
2021/12/07 18:28:14;;;;;;;50.60;26.70;;;;;;;2.15;66.42;98822.83;212971;1320;140005;-59
2021/12/07 18:33:24;;;;;;;49.10;26.80;;;;;;;2.18;66.26;98826.95;212431;1321;138752;-59
2021/12/07 18:38:30;;;;;;;53.70;27.90;;;;;;;2.21;66.30;98822.13;213022;1320;139475;-63
2021/12/07 18:43:35;;;;;;;50.90;28.50;;;;;;;2.23;66.18;98813.13;213803;1320;138643;-60
2021/12/07 18:48:39;;;;;;;51.30;28.60;;;;;;;2.21;66.19;98816.34;212536;1323;138681;-59
2021/12/07 18:53:45;;;;;;;81.10;45.40;;;;;;;2.22;66.48;98815.97;212906;1320;139630;-60
2021/12/07 18:58:48;;;;;;;46.80;27.60;;;;;;;2.30;66.58;98819.36;212359;1326;138568;-59
2021/12/07 19:03:52;;;;;;;47.00;25.70;;;;;;;2.31;66.31;98824.94;212464;1327;138922;-59
2021/12/07 19:08:55;;;;;;;51.30;26.40;;;;;;;2.23;65.93;98822.75;212847;1320;140526;-60
2021/12/07 19:13:58;;;;;;;54.30;28.90;;;;;;;2.14;65.92;98829.66;212414;1319;219371;-59
2021/12/07 19:19:01;;;;;;;55.10;26.80;;;;;;;2.10;66.11;98829.63;212759;1320;138465;-64
2021/12/07 19:24:05;;;;;;;61.70;34.90;;;;;;;2.10;66.48;98834.34;212607;1322;138673;-60
2021/12/07 19:29:08;;;;;;;57.50;30.70;;;;;;;2.13;66.37;98839.51;213028;1323;139092;-61
2021/12/07 19:34:11;;;;;;;50.20;26.70;;;;;;;2.20;66.70;98839.30;212488;1328;140283;-61
2021/12/07 19:39:15;;;;;;;56.20;27.90;;;;;;;2.25;66.18;98843.53;213188;1324;139598;-58
2021/12/07 19:44:19;;;;;;;94.30;47.40;;;;;;;2.20;66.40;98842.09;213267;1324;139068;-57
2021/12/07 19:49:23;;;;;;;87.70;43.90;;;;;;;2.27;66.25;98839.79;212919;1327;138449;-57
2021/12/07 19:54:27;;;;;;;68.40;31.80;;;;;;;3.12;70.67;98838.45;212623;1323;139031;-59
2021/12/07 19:59:34;;;;;;;63.70;30.60;;;;;;;3.49;66.96;98832.80;212503;1322;139615;-58
2021/12/07 20:04:38;;;;;;;63.40;31.10;;;;;;;3.15;65.53;98835.60;213133;1320;138483;-59
2021/12/07 20:09:46;;;;;;;66.10;32.10;;;;;;;2.83;65.23;98830.39;212897;1320;138790;-57
2021/12/07 20:14:49;;;;;;;68.10;34.00;;;;;;;2.57;65.16;98830.41;212417;1326;139305;-57
2021/12/07 20:19:55;;;;;;;71.50;33.80;;;;;;;2.37;65.28;98834.53;212344;1328;138889;-62
2021/12/07 20:25:03;;;;;;;70.70;34.50;;;;;;;2.21;65.50;98832.11;213010;1321;138407;-61
2021/12/07 20:30:10;;;;;;;69.90;32.80;;;;;;;2.11;65.51;98827.13;214519;1319;139297;-58
2021/12/07 20:35:14;;;;;;;76.30;35.30;;;;;;;2.05;65.80;98830.30;212991;1323;139303;-61
2021/12/07 20:40:23;;;;;;;74.40;34.80;;;;;;;1.96;65.68;98831.82;212133;1325;139349;-62
2021/12/07 20:45:28;;;;;;;71.30;33.90;;;;;;;1.88;65.69;98836.77;212325;1328;139644;-59
2021/12/07 20:50:32;;;;;;;72.80;33.80;;;;;;;1.80;65.99;98838.77;212756;1322;138979;-60
2021/12/07 20:55:36;;;;;;;72.60;33.60;;;;;;;1.78;66.01;98839.69;213185;1320;138257;-60
2021/12/07 21:00:42;;;;;;;65.30;32.10;;;;;;;1.75;66.04;98838.21;212379;1322;139178;-60
2021/12/07 21:05:45;;;;;;;65.70;30.90;;;;;;;1.72;66.01;98841.45;213528;1319;138732;-60
2021/12/07 21:10:55;;;;;;;64.10;30.80;;;;;;;1.75;66.14;98841.19;212513;1324;140287;-60
2021/12/07 21:16:06;;;;;;;68.10;33.00;;;;;;;1.75;66.28;98842.23;212929;1319;140111;-61
2021/12/07 21:21:12;;;;;;;66.80;31.60;;;;;;;1.76;66.27;98844.83;212834;1320;139034;-64
2021/12/07 21:26:15;;;;;;;69.10;32.60;;;;;;;1.73;66.11;98844.39;213332;1326;139038;-56
2021/12/07 21:31:36;;;;;;;65.70;31.20;;;;;;;1.67;66.09;98842.83;212927;1321;139622;-58
2021/12/07 21:36:40;;;;;;;67.80;31.90;;;;;;;1.62;66.11;98840.70;214023;1319;139795;-57
2021/12/07 21:41:45;;;;;;;65.50;31.20;;;;;;;1.56;66.07;98836.47;212927;1322;138608;-57
2021/12/07 21:46:49;;;;;;;65.30;30.70;;;;;;;1.53;66.21;98834.32;212180;1328;138699;-60
2021/12/07 21:51:52;;;;;;;55.00;27.40;;;;;;;1.51;66.40;98834.36;212311;1324;139076;-59
2021/12/07 21:56:56;;;;;;;61.20;28.20;;;;;;;1.50;66.29;98831.42;213175;1323;138826;-58
2021/12/07 22:01:59;;;;;;;56.80;26.70;;;;;;;1.49;66.23;98829.19;213021;1319;138954;-56
2021/12/07 22:07:03;;;;;;;55.40;25.80;;;;;;;1.48;66.36;98832.17;212832;1322;138942;-59
2021/12/07 22:12:06;;;;;;;56.60;26.70;;;;;;;1.47;66.22;98830.84;213377;1320;138306;-54
2021/12/07 22:17:10;;;;;;;55.10;27.10;;;;;;;1.45;66.23;98820.06;212534;1322;140431;-59
2021/12/07 22:22:13;;;;;;;64.30;28.20;;;;;;;1.49;66.30;98805.26;213161;1319;138975;-57
2021/12/07 22:27:22;;;;;;;62.10;28.10;;;;;;;1.49;66.28;98804.02;212731;1326;139104;-56
2021/12/07 22:32:32;;;;;;;59.80;27.90;;;;;;;1.49;66.33;98805.24;212832;1320;138937;-61
2021/12/07 22:37:35;;;;;;;65.60;28.10;;;;;;;1.48;66.36;98798.78;212555;1322;138372;-58
2021/12/07 22:42:39;;;;;;;61.70;27.90;;;;;;;1.46;66.37;98802.17;212693;1323;139084;-59
2021/12/07 22:47:43;;;;;;;65.20;27.40;;;;;;;1.45;66.46;98797.50;212558;1313;138680;-56
2021/12/07 22:52:47;;;;;;;63.80;27.90;;;;;;;1.44;66.54;98786.33;212594;1322;139578;-60
2021/12/07 22:57:50;;;;;;;69.70;29.40;;;;;;;1.38;66.28;98789.11;212541;1322;138620;-58
2021/12/07 23:02:57;;;;;;;68.90;28.20;;;;;;;1.34;66.41;98785.04;212454;1328;139107;-56
2021/12/07 23:08:01;;;;;;;67.90;29.00;;;;;;;1.34;66.63;98790.29;213059;1322;138769;-59
2021/12/07 23:13:08;;;;;;;72.20;30.30;;;;;;;1.36;66.62;98792.34;212825;1319;138687;-58
2021/12/07 23:18:18;;;;;;;148.50;65.30;;;;;;;1.34;66.88;98796.41;213165;1320;139058;-59
2021/12/07 23:23:25;;;;;;;82.50;32.30;;;;;;;1.44;67.01;98793.32;212962;1319;139151;-57
2021/12/07 23:28:30;;;;;;;84.70;32.50;;;;;;;1.45;66.83;98790.69;213561;1320;140123;-58
2021/12/07 23:33:34;;;;;;;83.40;32.60;;;;;;;1.46;66.70;98792.94;212958;1320;138951;-57
2021/12/07 23:38:41;;;;;;;79.60;31.90;;;;;;;1.48;66.87;98789.36;213223;1322;139090;-58
2021/12/07 23:43:45;;;;;;;76.00;31.20;;;;;;;1.42;66.58;98789.89;213245;1320;138256;-58
2021/12/07 23:48:51;;;;;;;78.20;30.80;;;;;;;1.35;66.73;98782.92;212956;1325;137970;-57
2021/12/07 23:53:55;;;;;;;79.30;31.00;;;;;;;1.30;66.78;98776.43;212678;1320;138978;-56
2021/12/07 23:58:59;;;;;;;72.50;29.50;;;;;;;1.26;66.83;98769.02;212056;1328;138907;-57
